Time;durP1;ratioP1;P1;durP2;ratioP2;P2;SDS_P1;SDS_P2;PMS_P1;PMS_P2;Temp;Humidity;BMP_temperature;BMP_pressure;BME280_temperature;BME280_humidity;BME280_pressure;Samples;Min_cycle;Max_cycle;Signal;HPM_P1;HPM_P2
2020/12/14 00:01:28;;;;;;;9.45;2.53;;;;;;;6.59;89.95;100525.53;5000184;28;20164;-79
2020/12/14 00:03:54;;;;;;;8.65;2.50;;;;;;;6.59;90.04;100530.84;5015178;28;20095;-80
2020/12/14 00:06:19;;;;;;;7.43;2.60;;;;;;;6.56;89.99;100529.31;5040466;28;20130;-81
2020/12/14 00:08:45;;;;;;;7.88;2.75;;;;;;;6.54;89.96;100518.00;5037757;28;20104;-78
2020/12/14 00:11:11;;;;;;;9.38;2.65;;;;;;;6.59;89.81;100515.78;4984974;28;20120;-85
2020/12/14 00:13:36;;;;;;;9.77;2.30;;;;;;;6.70;90.08;100522.81;5025905;28;20756;-79
2020/12/14 00:16:06;;;;;;;8.70;2.30;;;;;;;6.65;89.85;100517.06;5027847;28;20045;-80
2020/12/14 00:18:32;;;;;;;10.40;2.90;;;;;;;6.62;89.46;100509.38;5038717;28;20044;-80
2020/12/14 00:20:57;;;;;;;10.05;2.85;;;;;;;6.63;89.69;100508.41;5038464;28;20136;-82
2020/12/14 00:23:23;;;;;;;6.22;2.35;;;;;;;6.65;89.78;100509.09;5039979;28;20116;-80
2020/12/14 00:25:48;;;;;;;10.85;2.42;;;;;;;6.67;89.84;100507.16;5041350;28;20128;-75
2020/12/14 00:28:14;;;;;;;7.63;2.80;;;;;;;6.70;89.57;100506.91;5036333;28;20124;-75
2020/12/14 00:30:39;;;;;;;5.32;2.30;;;;;;;6.71;89.50;100495.31;5026497;28;20471;-80
2020/12/14 00:33:05;;;;;;;6.55;2.40;;;;;;;6.76;89.14;100497.56;5033896;28;20495;-80
2020/12/14 00:35:30;;;;;;;7.85;2.53;;;;;;;6.77;88.55;100495.72;5016579;28;20196;-81
2020/12/14 00:37:56;;;;;;;4.97;2.55;;;;;;;6.79;89.11;100491.13;5037211;28;20489;-80
2020/12/14 00:40:21;;;;;;;9.23;2.33;;;;;;;6.80;89.18;100498.09;5018385;28;20116;-74
2020/12/14 00:42:47;;;;;;;8.48;2.53;;;;;;;6.78;89.17;100492.94;5017049;28;20128;-83
2020/12/14 00:45:12;;;;;;;8.00;2.30;;;;;;;6.80;88.92;100496.28;5037796;28;20075;-80
2020/12/14 00:47:38;;;;;;;8.75;2.58;;;;;;;6.81;88.98;100484.69;5032559;28;20120;-80
2020/12/14 00:50:04;;;;;;;7.40;2.17;;;;;;;6.85;89.15;100487.94;5038810;28;20096;-79
2020/12/14 00:52:29;;;;;;;6.65;2.45;;;;;;;6.81;89.23;100497.97;5033195;28;20155;-79
2020/12/14 00:54:55;;;;;;;7.82;2.30;;;;;;;6.82;88.53;100491.69;5040787;28;20492;-80
2020/12/14 00:57:20;;;;;;;6.80;2.63;;;;;;;6.87;88.65;100488.59;5038962;28;20474;-80
2020/12/14 00:59:46;;;;;;;4.07;2.35;;;;;;;6.88;88.71;100490.28;5034533;28;20112;-80
2020/12/14 01:02:11;;;;;;;5.40;2.20;;;;;;;6.95;88.17;100482.63;5027973;28;20117;-81
2020/12/14 01:04:37;;;;;;;4.75;2.03;;;;;;;6.93;88.39;100488.06;5040573;28;20125;-80
2020/12/14 01:07:02;;;;;;;5.35;2.05;;;;;;;6.94;88.66;100491.56;5040886;28;20127;-75
2020/12/14 01:09:28;;;;;;;11.20;2.38;;;;;;;6.94;88.66;100491.56;5038194;28;20141;-75
2020/12/14 01:11:53;;;;;;;8.55;2.40;;;;;;;6.97;88.59;100493.94;5023686;28;20148;-79
2020/12/14 01:14:19;;;;;;;6.05;2.20;;;;;;;7.01;88.61;100492.69;5035868;28;20080;-75
2020/12/14 01:16:47;;;;;;;8.10;2.70;;;;;;;7.04;88.40;100492.44;5045949;28;20506;-80
2020/12/14 01:19:13;;;;;;;5.13;1.98;;;;;;;7.07;88.29;100502.72;5035711;28;20363;-80
2020/12/14 01:21:38;;;;;;;6.30;2.38;;;;;;;7.08;88.48;100487.66;5042948;28;20507;-80
2020/12/14 01:24:04;;;;;;;9.15;2.78;;;;;;;7.04;89.02;100492.44;5045197;28;20544;-77
2020/12/14 01:26:31;;;;;;;6.25;2.50;;;;;;;7.04;89.51;100497.72;5038454;28;20602;-81
2020/12/14 01:28:56;;;;;;;6.35;2.10;;;;;;;6.99;89.61;100487.50;5022256;28;20029;-75
2020/12/14 01:31:23;;;;;;;6.40;2.60;;;;;;;6.96;89.92;100479.84;5021544;28;20635;-75
2020/12/14 01:33:49;;;;;;;4.10;1.75;;;;;;;6.94;90.09;100468.53;5042496;28;21777;-83
2020/12/14 01:36:14;;;;;;;7.18;2.15;;;;;;;6.99;90.00;100466.28;5037853;28;20507;-75
2020/12/14 01:38:40;;;;;;;6.10;2.03;;;;;;;6.96;90.47;100455.97;5037067;28;20125;-81
2020/12/14 01:41:05;;;;;;;5.18;2.55;;;;;;;6.99;90.54;100465.47;5041107;28;20086;-75
2020/12/14 01:43:31;;;;;;;4.53;2.20;;;;;;;7.03;90.20;100456.25;5022238;28;20561;-81
2020/12/14 01:45:56;;;;;;;5.53;2.38;;;;;;;7.05;90.09;100460.44;5017126;28;20124;-81
2020/12/14 01:48:22;;;;;;;6.65;2.38;;;;;;;7.10;89.90;100473.28;5018439;28;20112;-80
2020/12/14 01:50:48;;;;;;;5.32;2.00;;;;;;;7.11;90.01;100471.47;5037493;28;20047;-81
2020/12/14 01:53:13;;;;;;;3.53;1.85;;;;;;;7.11;90.23;100480.25;5039144;28;20124;-82
2020/12/14 01:55:42;;;;;;;4.80;2.50;;;;;;;7.13;89.90;100474.81;5007209;28;20052;-81
2020/12/14 01:58:08;;;;;;;;;;;;;;;7.14;90.29;100476.47;5025456;28;20032;-76
2020/12/14 02:00:33;;;;;;;5.13;2.50;;;;;;;7.14;90.01;100480.00;5037640;28;20387;-80
2020/12/14 02:02:59;;;;;;;6.40;2.30;;;;;;;7.20;89.98;100474.09;5039558;28;20223;-75
2020/12/14 02:05:24;;;;;;;5.63;2.20;;;;;;;7.15;89.83;100471.06;5021231;28;20030;-81
2020/12/14 02:07:50;;;;;;;4.80;2.10;;;;;;;7.20;90.09;100476.75;5012773;28;20187;-81
2020/12/14 02:10:15;;;;;;;4.43;2.22;;;;;;;7.04;90.13;100450.78;5040627;28;20140;-81
2020/12/14 02:12:41;;;;;;;7.47;2.40;;;;;;;7.23;89.98;100473.00;5039725;28;20065;-82
2020/12/14 02:15:07;;;;;;;4.88;2.72;;;;;;;7.19;90.53;100475.09;4996002;28;20092;-81
2020/12/14 02:17:32;;;;;;;4.97;2.63;;;;;;;7.01;90.18;100444.94;5020368;28;20125;-81
2020/12/14 02:19:58;;;;;;;5.10;2.30;;;;;;;7.19;90.13;100461.81;5023415;28;20090;-81
2020/12/14 02:22:25;;;;;;;5.80;2.65;;;;;;;7.25;89.88;100468.41;5017859;28;20178;-81
2020/12/14 02:25:01;;;;;;;5.20;2.40;;;;;;;7.20;90.77;100470.63;5026560;28;20052;-75
2020/12/14 02:27:28;;;;;;;5.35;2.55;;;;;;;7.17;91.46;100468.25;5035398;28;20031;-75
2020/12/14 02:29:53;;;;;;;5.13;3.20;;;;;;;7.17;91.19;100468.25;5039060;28;20041;-76
2020/12/14 02:32:19;;;;;;;7.53;2.83;;;;;;;7.14;91.65;100471.19;5039333;28;20473;-80
2020/12/14 02:34:45;;;;;;;5.10;3.13;;;;;;;7.12;91.51;100465.19;5034673;28;20060;-80
2020/12/14 02:37:13;;;;;;;5.68;2.60;;;;;;;7.02;92.17;100452.75;5040041;28;20052;-76
2020/12/14 02:39:39;;;;;;;5.55;3.20;;;;;;;7.10;92.49;100464.50;5024359;28;20116;-75
2020/12/14 02:42:09;;;;;;;4.63;3.08;;;;;;;6.96;92.88;100448.00;5019559;28;20041;-75
2020/12/14 02:44:34;;;;;;;5.00;3.15;;;;;;;7.07;93.57;100457.63;5016013;28;20045;-79
2020/12/14 02:47:00;;;;;;;5.88;3.88;;;;;;;7.03;93.94;100451.78;5017763;28;20057;-79
2020/12/14 02:49:25;;;;;;;5.85;3.80;;;;;;;6.98;94.59;100443.41;5036978;28;20064;-80
2020/12/14 02:51:51;;;;;;;6.75;3.55;;;;;;;6.95;94.62;100446.34;5034165;28;20132;-80
2020/12/14 02:54:16;;;;;;;9.27;3.53;;;;;;;6.93;94.85;100452.72;5035226;28;20083;-78
2020/12/14 02:56:43;;;;;;;9.10;4.53;;;;;;;6.88;95.60;100440.75;5039672;28;20116;-78
2020/12/14 02:59:11;;;;;;;5.97;3.83;;;;;;;6.87;95.79;100444.38;5024106;28;20083;-76
2020/12/14 03:01:36;;;;;;;9.10;4.20;;;;;;;6.81;96.42;100442.25;5037488;28;20033;-76
2020/12/14 03:04:02;;;;;;;8.40;4.53;;;;;;;6.78;96.21;100436.41;5032831;28;20147;-77
2020/12/14 03:06:27;;;;;;;9.45;4.75;;;;;;;6.81;96.63;100430.84;5038827;28;20709;-78
2020/12/14 03:08:53;;;;;;;7.70;4.97;;;;;;;6.74;97.10;100430.53;5023587;28;20140;-77
2020/12/14 03:11:19;;;;;;;7.10;4.65;;;;;;;6.73;97.05;100419.09;5036312;28;20140;-76
2020/12/14 03:13:44;;;;;;;7.85;4.72;;;;;;;6.77;97.21;100429.41;5034006;28;20123;-75
2020/12/14 03:16:10;;;;;;;9.68;5.40;;;;;;;6.76;97.32;100431.25;5044176;28;20114;-75
2020/12/14 03:18:35;;;;;;;9.60;5.30;;;;;;;6.78;97.17;100428.44;5023045;28;20112;-75
2020/12/14 03:21:04;;;;;;;10.38;5.55;;;;;;;6.79;97.19;100424.81;5017914;28;20175;-77
2020/12/14 03:23:30;;;;;;;8.27;6.13;;;;;;;6.76;97.32;100425.94;5023500;28;20037;-77
2020/12/14 03:25:55;;;;;;;9.90;5.72;;;;;;;6.78;97.92;100423.13;5037717;28;20148;-77
2020/12/14 03:28:21;;;;;;;8.90;6.30;;;;;;;6.80;97.80;100422.03;5022562;28;20140;-77
2020/12/14 03:30:46;;;;;;;9.07;6.55;;;;;;;6.78;98.12;100429.31;5038690;28;20132;-77
2020/12/14 03:33:12;;;;;;;15.30;6.30;;;;;;;6.80;98.31;100426.50;5035568;28;20594;-77
2020/12/14 03:35:37;;;;;;;11.15;6.50;;;;;;;6.81;98.01;100415.75;5022936;28;20117;-77
2020/12/14 03:38:03;;;;;;;7.15;6.45;;;;;;;6.82;98.22;100421.91;5018723;28;20163;-78
2020/12/14 03:40:28;;;;;;;9.75;6.40;;;;;;;6.84;98.56;100422.59;5036090;28;20057;-77
2020/12/14 03:42:54;;;;;;;11.85;7.50;;;;;;;6.82;98.53;100420.06;5039913;28;20171;-77
2020/12/14 03:45:19;;;;;;;8.07;6.93;;;;;;;6.80;98.66;100416.72;5021886;28;20124;-77
2020/12/14 03:47:45;;;;;;;8.27;6.63;;;;;;;6.73;98.63;100411.13;5022761;28;20033;-78
2020/12/14 03:50:10;;;;;;;8.68;7.45;;;;;;;6.82;99.07;100411.28;5026762;28;20131;-77
2020/12/14 03:52:36;;;;;;;7.75;6.55;;;;;;;6.86;99.22;100416.16;5039409;28;20159;-77
2020/12/14 03:55:01;;;;;;;12.05;7.75;;;;;;;6.89;98.87;100415.03;5037322;28;20122;-77
2020/12/14 03:57:28;;;;;;;7.25;6.57;;;;;;;6.90;98.64;100414.06;5037741;28;20087;-78
2020/12/14 03:59:54;;;;;;;10.48;7.22;;;;;;;6.93;98.68;100424.41;5021239;28;20052;-77
2020/12/14 04:02:20;;;;;;;8.88;7.90;;;;;;;6.90;99.22;100416.72;5037563;28;20111;-77
2020/12/14 04:04:46;;;;;;;11.05;8.00;;;;;;;6.95;99.20;100418.94;5038368;28;20060;-77
2020/12/14 04:07:11;;;;;;;14.32;8.57;;;;;;;6.93;99.16;100413.78;5036373;28;20118;-77
2020/12/14 04:09:37;;;;;;;11.77;8.65;;;;;;;6.88;99.55;100397.44;5043204;28;20119;-76
2020/12/14 04:12:02;;;;;;;11.48;9.80;;;;;;;6.93;99.43;100415.59;5017989;28;20469;-75
2020/12/14 04:14:28;;;;;;;14.35;10.15;;;;;;;6.99;99.96;100415.06;5035694;28;20464;-77
2020/12/14 04:16:53;;;;;;;13.02;10.00;;;;;;;6.97;99.49;100406.38;5017624;28;20181;-77
2020/12/14 04:19:22;;;;;;;11.13;9.80;;;;;;;6.99;98.85;100405.25;5040857;28;20131;-77
2020/12/14 04:21:49;;;;;;;16.00;10.90;;;;;;;7.01;99.60;100408.63;5022413;28;20531;-77
2020/12/14 04:24:15;;;;;;;16.02;11.07;;;;;;;6.99;99.17;100405.25;5011075;28;20029;-77
2020/12/14 04:26:41;;;;;;;13.57;11.10;;;;;;;6.99;99.57;100396.47;5033085;28;20044;-76
2020/12/14 04:29:06;;;;;;;12.20;11.00;;;;;;;6.99;99.81;100405.25;5019849;28;20127;-75
2020/12/14 04:31:32;;;;;;;14.65;10.90;;;;;;;7.04;99.80;100397.72;5022750;28;20123;-74
2020/12/14 04:33:57;;;;;;;16.17;11.80;;;;;;;7.02;99.79;100401.50;5020779;28;20140;-76
2020/12/14 04:36:23;;;;;;;19.88;11.27;;;;;;;7.04;99.58;100395.06;5034910;28;20116;-77
2020/12/14 04:38:48;;;;;;;14.18;11.55;;;;;;;7.07;99.97;100398.44;5035472;28;20124;-78
2020/12/14 04:41:14;;;;;;;15.63;11.20;;;;;;;6.94;99.92;100375.69;5020416;28;20127;-76
2020/12/14 04:43:40;;;;;;;13.95;10.18;;;;;;;7.03;99.65;100398.72;5004757;28;20135;-76
2020/12/14 04:46:06;;;;;;;12.48;11.15;;;;;;;6.94;100.00;100383.63;5021540;28;20053;-78
2020/12/14 04:48:32;;;;;;;12.95;11.65;;;;;;;7.05;100.00;100391.44;5000818;28;20043;-78
2020/12/14 04:50:57;;;;;;;12.40;10.88;;;;;;;7.08;100.00;100395.63;5021620;28;20117;-80
2020/12/14 04:53:23;;;;;;;15.38;11.48;;;;;;;7.11;100.00;100391.88;5014279;28;20048;-79
2020/12/14 04:55:48;;;;;;;11.90;9.82;;;;;;;7.13;99.62;100384.59;5030552;28;20121;-77
2020/12/14 04:58:14;;;;;;;12.63;10.70;;;;;;;7.11;100.00;100390.03;5016768;28;20167;-75
2020/12/14 05:00:39;;;;;;;11.30;10.20;;;;;;;7.16;99.70;100385.16;5021584;28;20044;-77
2020/12/14 05:03:05;;;;;;;16.55;10.68;;;;;;;7.19;100.00;100362.78;5019463;28;20115;-78
2020/12/14 05:05:31;;;;;;;13.90;11.70;;;;;;;7.10;100.00;100361.84;5001041;28;20116;-76
2020/12/14 05:07:56;;;;;;;14.35;11.35;;;;;;;7.16;100.00;100357.75;5016759;28;20041;-76
2020/12/14 05:10:23;;;;;;;15.75;11.77;;;;;;;7.18;99.93;100351.34;5019489;28;20030;-77
2020/12/14 05:12:49;;;;;;;13.48;11.75;;;;;;;7.20;100.00;100356.50;5019486;28;20034;-76
2020/12/14 05:15:19;;;;;;;13.90;10.75;;;;;;;7.18;100.00;100377.91;5021123;28;20132;-80
2020/12/14 05:17:45;;;;;;;14.40;11.20;;;;;;;7.09;100.00;100361.97;5033712;28;20065;-80
2020/12/14 05:20:18;;;;;;;16.70;10.43;;;;;;;7.12;100.00;100370.50;5018738;28;20017;-80
2020/12/14 05:22:57;;;;;;;12.38;10.50;;;;;;;7.24;100.00;100389.75;5013765;28;20047;-76
2020/12/14 05:25:23;;;;;;;14.15;11.00;;;;;;;7.25;100.00;100388.78;5035315;28;20037;-76
2020/12/14 05:27:49;;;;;;;13.88;10.68;;;;;;;7.28;100.00;100385.00;5041538;28;20068;-75
2020/12/14 05:30:14;;;;;;;15.82;12.30;;;;;;;7.30;100.00;100380.38;5034430;28;20069;-80
2020/12/14 05:32:40;;;;;;;13.13;11.60;;;;;;;7.31;99.96;100382.88;5002331;28;20511;-81
2020/12/14 05:35:12;;;;;;;12.85;11.55;;;;;;;7.35;100.00;100389.59;5034629;28;20118;-80
2020/12/14 05:37:38;;;;;;;13.43;11.65;;;;;;;7.38;100.00;100387.63;5002676;28;20036;-80
2020/12/14 05:40:10;;;;;;;13.23;10.70;;;;;;;7.41;100.00;100396.13;5020488;28;20111;-79
2020/12/14 05:42:41;;;;;;;11.77;10.43;;;;;;;7.28;99.82;100364.59;5034985;28;20725;-80
2020/12/14 05:45:10;;;;;;;13.73;11.70;;;;;;;7.44;100.00;100389.69;5022497;28;20037;-80
2020/12/14 05:47:36;;;;;;;16.35;11.63;;;;;;;7.48;99.96;100389.25;5033677;28;20037;-80
2020/12/14 05:50:02;;;;;;;13.00;10.88;;;;;;;7.50;100.00;100382.00;5021784;28;20128;-79
2020/12/14 05:52:31;;;;;;;13.02;11.63;;;;;;;7.47;100.00;100389.41;5003186;28;20044;-81
2020/12/14 05:54:57;;;;;;;13.25;10.80;;;;;;;7.55;100.00;100388.69;5036140;28;20557;-80
2020/12/14 05:57:29;;;;;;;13.48;11.05;;;;;;;7.55;100.00;100384.22;5010660;28;20065;-83
2020/12/14 06:00:04;;;;;;;15.18;11.98;;;;;;;7.60;100.00;100378.50;5034463;28;20045;-82
2020/12/14 06:02:29;;;;;;;13.85;11.48;;;;;;;7.61;100.00;100381.00;5040021;28;20041;-80
2020/12/14 06:04:56;;;;;;;14.35;10.95;;;;;;;7.66;100.00;100380.56;4992842;28;20045;-81
2020/12/14 06:07:26;;;;;;;11.20;10.07;;;;;;;7.70;100.00;100383.75;5020470;28;20037;-80
2020/12/14 06:10:02;;;;;;;11.80;10.45;;;;;;;7.72;100.00;100379.13;5024178;28;20045;-80
2020/12/14 06:12:31;;;;;;;11.43;10.18;;;;;;;7.71;100.00;100373.00;5039158;28;20175;-80
2020/12/14 06:15:01;;;;;;;11.77;9.20;;;;;;;7.54;100.00;100312.69;5039270;28;20033;-81
2020/12/14 06:17:27;;;;;;;12.82;9.85;;;;;;;7.75;100.00;100326.53;5022431;28;20057;-80
2020/12/14 06:20:13;;;;;;;15.10;9.75;;;;;;;7.86;100.00;100354.75;4999978;28;20041;-80
2020/12/14 06:23:02;;;;;;;11.88;9.70;;;;;;;7.88;100.00;100350.13;5038556;28;20076;-78
2020/12/14 06:25:28;;;;;;;12.30;9.75;;;;;;;7.89;100.00;100353.59;5028169;28;20116;-78
2020/12/14 06:27:53;;;;;;;13.73;10.10;;;;;;;7.90;100.00;100369.41;5025735;28;20116;-79
2020/12/14 06:30:34;;;;;;;15.88;10.70;;;;;;;7.89;100.00;100366.88;5038284;28;20117;-78
2020/12/14 06:33:01;;;;;;;13.88;10.60;;;;;;;7.92;100.00;100355.97;5021744;28;20061;-78
2020/12/14 06:35:49;;;;;;;12.85;11.10;;;;;;;8.00;100.00;100368.50;4999925;28;20551;-79
2020/12/14 06:38:35;;;;;;;13.63;11.43;;;;;;;8.01;100.00;100383.47;5024253;28;20521;-80
2020/12/14 06:41:01;;;;;;;13.00;11.38;;;;;;;7.99;100.00;100385.44;5011378;28;20049;-80
2020/12/14 06:43:29;;;;;;;15.10;11.65;;;;;;;8.01;100.00;100378.97;5033635;28;20045;-81
2020/12/14 06:45:55;;;;;;;17.13;12.57;;;;;;;7.91;100.00;100363.13;5038686;28;20045;-79
2020/12/14 06:48:36;;;;;;;19.83;12.43;;;;;;;8.05;100.00;100372.41;5020069;28;20040;-81
2020/12/14 06:51:03;;;;;;;16.33;12.63;;;;;;;8.09;100.00;100379.09;5043389;28;20044;-81
2020/12/14 06:53:39;;;;;;;15.20;12.88;;;;;;;8.12;100.00;100370.84;5021801;28;20041;-77
2020/12/14 06:56:04;;;;;;;15.43;13.60;;;;;;;7.96;100.00;100342.22;5026256;28;20484;-75
2020/12/14 06:58:34;;;;;;;15.77;12.95;;;;;;;8.12;100.00;100370.84;5019643;28;20104;-81
2020/12/14 07:00:59;;;;;;;14.55;12.48;;;;;;;8.03;100.00;100354.94;5038949;28;20142;-80
2020/12/14 07:03:35;;;;;;;15.38;13.77;;;;;;;8.18;100.00;100373.88;5038741;28;20057;-79
2020/12/14 07:06:01;;;;;;;15.57;12.48;;;;;;;8.23;99.83;100369.78;5038009;28;20410;-78
2020/12/14 07:08:37;;;;;;;13.55;12.10;;;;;;;7.88;100.00;100320.91;5039166;28;20037;-78
2020/12/14 07:11:18;;;;;;;17.58;13.18;;;;;;;8.24;99.78;100374.09;5036867;28;20039;-78
2020/12/14 07:13:44;;;;;;;14.13;11.88;;;;;;;8.18;100.00;100368.56;5036852;28;20308;-79
2020/12/14 07:16:11;;;;;;;14.52;12.48;;;;;;;8.25;100.00;100375.78;5005275;28;20509;-79
2020/12/14 07:18:37;;;;;;;15.25;12.18;;;;;;;8.33;100.00;100376.88;5019744;28;20132;-80
2020/12/14 07:21:09;;;;;;;13.57;10.60;;;;;;;8.35;100.00;100391.69;5020794;28;20040;-82
2020/12/14 07:23:35;;;;;;;15.50;11.13;;;;;;;8.34;100.00;100378.53;5010027;28;20028;-82
2020/12/14 07:26:01;;;;;;;12.93;10.70;;;;;;;8.13;100.00;100331.78;5038731;28;20051;-83
2020/12/14 07:28:54;;;;;;;14.80;10.35;;;;;;;8.42;100.00;100376.78;5038813;28;20041;-83
2020/12/14 07:31:20;;;;;;;13.35;10.43;;;;;;;8.48;100.00;100398.47;5035479;28;20044;-83
2020/12/14 07:34:04;;;;;;;11.88;10.68;;;;;;;8.49;99.94;100385.03;5012125;28;20037;-84
2020/12/14 07:36:29;;;;;;;12.45;9.85;;;;;;;8.55;100.00;100400.41;5036357;28;20492;-84
2020/12/14 07:38:56;;;;;;;11.65;10.13;;;;;;;8.15;99.24;100327.16;5019359;28;20124;-81
2020/12/14 07:41:22;;;;;;;10.82;9.15;;;;;;;8.61;99.08;100403.44;5043897;28;20043;-83
2020/12/14 07:43:55;;;;;;;11.68;9.95;;;;;;;8.65;99.97;100408.31;5023573;28;20049;-87
2020/12/14 07:46:29;;;;;;;14.30;10.00;;;;;;;8.69;99.21;100407.00;5033393;28;20037;-82
2020/12/14 07:48:58;;;;;;;11.77;9.48;;;;;;;8.71;99.14;100414.84;5020615;28;20087;-83
2020/12/14 07:51:24;;;;;;;10.88;9.60;;;;;;;8.57;99.71;100376.28;5042055;28;20584;-83
2020/12/14 07:53:51;;;;;;;12.10;9.38;;;;;;;8.75;99.03;100416.22;5023179;28;20033;-84
2020/12/14 07:56:17;;;;;;;12.52;9.88;;;;;;;8.79;98.88;100414.09;5035507;28;20056;-82
2020/12/14 07:58:49;;;;;;;10.93;9.80;;;;;;;8.80;99.51;100421.91;5042041;28;20064;-83
2020/12/14 08:01:17;;;;;;;12.20;10.55;;;;;;;8.78;99.07;100420.41;5036932;28;20040;-84
2020/12/14 08:03:46;;;;;;;13.40;10.95;;;;;;;8.81;98.84;100433.41;5035494;28;20116;-82
2020/12/14 08:06:17;;;;;;;14.40;12.25;;;;;;;8.80;99.46;100437.88;5027931;28;20039;-83
2020/12/14 08:08:46;;;;;;;17.52;12.93;;;;;;;8.86;99.51;100439.94;5023403;28;20052;-84
2020/12/14 08:11:12;;;;;;;13.23;11.73;;;;;;;8.85;99.60;100424.97;5022602;28;20075;-89
2020/12/14 08:13:38;;;;;;;13.82;12.40;;;;;;;8.74;99.07;100406.56;5004110;28;20029;-86
2020/12/14 08:16:04;;;;;;;15.13;11.88;;;;;;;8.80;98.61;100405.13;5006986;28;20080;-86
2020/12/14 08:18:30;;;;;;;13.55;12.15;;;;;;;9.01;98.31;100432.25;5006874;28;20052;-88
2020/12/14 08:20:56;;;;;;;14.02;12.52;;;;;;;8.99;98.62;100426.22;5030789;28;20641;-88
2020/12/14 08:23:22;;;;;;;14.55;13.13;;;;;;;8.93;99.29;100448.16;5042095;28;20132;-88
2020/12/14 08:25:49;;;;;;;18.13;12.95;;;;;;;8.91;99.13;100438.63;5035485;28;20041;-87
2020/12/14 08:28:15;;;;;;;15.38;12.95;;;;;;;8.96;99.06;100439.03;5020994;28;20040;-84
2020/12/14 08:30:40;;;;;;;15.00;12.93;;;;;;;9.00;98.95;100437.75;5008449;28;20053;-84
2020/12/14 08:33:07;;;;;;;14.75;13.20;;;;;;;9.07;98.46;100440.63;5039435;28;20061;-84
2020/12/14 08:35:33;;;;;;;14.63;13.18;;;;;;;9.06;98.57;100437.09;5025280;28;20327;-84
2020/12/14 08:38:07;;;;;;;15.50;13.38;;;;;;;9.09;98.51;100433.31;5014817;28;20048;-85
2020/12/14 08:40:32;;;;;;;13.18;11.82;;;;;;;9.12;98.04;100433.84;5010231;28;20055;-83
2020/12/14 08:43:11;;;;;;;12.85;11.63;;;;;;;9.21;98.31;100450.72;5031968;28;20556;-82
2020/12/14 08:45:40;;;;;;;13.23;11.90;;;;;;;9.27;98.04;100444.78;5036537;28;20041;-85
2020/12/14 08:48:06;;;;;;;13.52;11.60;;;;;;;9.29;98.37;100461.44;5035606;28;20072;-84
2020/12/14 08:50:32;;;;;;;16.75;12.52;;;;;;;9.29;98.17;100468.59;5038442;28;20112;-85
2020/12/14 08:52:59;;;;;;;13.25;11.38;;;;;;;9.15;98.15;100441.53;5033996;28;20580;-84
2020/12/14 08:55:38;;;;;;;13.50;10.50;;;;;;;9.33;97.66;100462.81;5032644;28;20025;-84
2020/12/14 08:58:03;;;;;;;11.85;10.25;;;;;;;9.36;97.77;100469.63;5016729;28;20121;-86
2020/12/14 09:00:29;;;;;;;11.27;10.07;;;;;;;9.39;98.03;100461.34;5013428;28;20495;-82
2020/12/14 09:03:13;;;;;;;10.73;9.63;;;;;;;9.47;97.64;100463.25;5018859;28;20132;-83
2020/12/14 09:05:38;;;;;;;13.68;9.93;;;;;;;9.49;97.28;100467.41;5036998;28;20099;-83
2020/12/14 09:08:16;;;;;;;10.35;9.38;;;;;;;9.50;98.04;100469.09;5037850;28;20123;-84
2020/12/14 09:10:55;;;;;;;10.30;9.40;;;;;;;9.53;97.19;100475.91;5019428;28;20033;-84
2020/12/14 09:13:20;;;;;;;10.45;9.27;;;;;;;9.53;96.32;100485.75;5017118;28;20069;-85
2020/12/14 09:15:53;;;;;;;9.20;8.30;;;;;;;9.54;96.36;100488.25;5038911;28;20113;-83
2020/12/14 09:18:19;;;;;;;9.80;8.38;;;;;;;9.62;97.06;100488.31;5037031;28;20052;-81
2020/12/14 09:20:45;;;;;;;9.35;8.43;;;;;;;9.62;96.56;100495.47;5027414;28;20053;-83
2020/12/14 09:23:20;;;;;;;9.00;8.10;;;;;;;9.48;96.19;100465.72;5033226;28;20137;-83
2020/12/14 09:25:46;;;;;;;8.00;7.40;;;;;;;9.69;96.42;100501.00;5025841;28;20033;-83
2020/12/14 09:28:11;;;;;;;9.50;8.60;;;;;;;9.63;96.41;100498.00;5036855;28;20188;-82
2020/12/14 09:30:37;;;;;;;9.98;8.98;;;;;;;9.64;96.08;100509.47;5013456;28;20156;-82
2020/12/14 09:33:03;;;;;;;10.70;9.35;;;;;;;9.43;96.97;100499.97;5042749;28;20133;-82
2020/12/14 09:35:28;;;;;;;10.85;9.52;;;;;;;9.54;96.76;100527.38;5025754;28;20172;-82
2020/12/14 09:37:54;;;;;;;10.73;9.80;;;;;;;9.58;97.41;100521.59;5039985;28;20579;-83
2020/12/14 09:40:19;;;;;;;11.18;9.48;;;;;;;9.62;97.48;100530.09;5044398;28;20116;-82
2020/12/14 09:42:45;;;;;;;9.00;8.13;;;;;;;9.71;96.69;100526.50;5022206;28;20065;-81
2020/12/14 09:45:10;;;;;;;10.20;8.82;;;;;;;9.70;96.19;100524.84;5045027;28;20203;-81
2020/12/14 09:47:36;;;;;;;9.63;8.52;;;;;;;9.73;97.01;100531.69;5042250;28;20191;-82
2020/12/14 09:50:02;;;;;;;9.10;8.20;;;;;;;9.75;96.53;100535.88;5038877;28;20116;-81
2020/12/14 09:52:28;;;;;;;10.70;9.40;;;;;;;9.71;96.74;100531.81;5041370;28;20032;-82
2020/12/14 09:54:53;;;;;;;9.27;8.15;;;;;;;9.79;96.39;100533.72;5046444;28;20113;-81
2020/12/14 09:57:19;;;;;;;8.65;7.82;;;;;;;9.82;96.73;100537.94;5044581;28;20148;-82
2020/12/14 09:59:44;;;;;;;8.27;7.60;;;;;;;9.87;95.77;100540.94;5040692;28;20112;-81
2020/12/14 10:02:10;;;;;;;8.50;7.25;;;;;;;9.75;95.60;100511.06;5040196;28;20179;-81
2020/12/14 10:04:36;;;;;;;7.43;6.82;;;;;;;9.46;95.50;100467.72;5040333;28;20057;-81
2020/12/14 10:07:01;;;;;;;9.43;6.65;;;;;;;9.94;95.80;100544.66;5048162;28;20071;-81
2020/12/14 10:09:28;;;;;;;8.18;7.22;;;;;;;10.02;95.28;100534.03;5044817;28;20076;-80
2020/12/14 10:11:55;;;;;;;6.68;6.07;;;;;;;10.07;94.30;100541.56;5040402;28;20041;-77
2020/12/14 10:14:20;;;;;;;7.68;6.97;;;;;;;10.08;95.24;100537.91;5039121;28;20086;-81
2020/12/14 10:16:48;;;;;;;6.25;5.65;;;;;;;10.11;94.78;100534.94;5047670;28;20127;-81
2020/12/14 10:19:14;;;;;;;7.95;5.20;;;;;;;9.60;94.04;100452.16;5042830;28;20061;-81
2020/12/14 10:21:40;;;;;;;6.55;5.57;;;;;;;10.20;94.62;100533.97;5041328;28;20566;-76
2020/12/14 10:24:05;;;;;;;6.18;5.20;;;;;;;10.22;93.78;100547.19;5039487;28;20041;-82
2020/12/14 10:26:31;;;;;;;6.22;5.18;;;;;;;10.28;93.44;100535.84;5027082;28;20119;-80
2020/12/14 10:28:56;;;;;;;5.47;5.03;;;;;;;10.26;93.50;100538.69;5039810;28;20100;-81
2020/12/14 10:31:23;;;;;;;5.57;5.00;;;;;;;10.32;93.00;100537.22;5036968;28;20060;-81
2020/12/14 10:33:48;;;;;;;5.72;5.15;;;;;;;10.37;92.91;100550.06;5037586;28;20200;-82
2020/12/14 10:36:18;;;;;;;6.47;5.90;;;;;;;10.37;92.82;100550.94;5022618;28;20116;-76
2020/12/14 10:38:44;;;;;;;6.30;5.70;;;;;;;10.27;93.08;100535.03;5038104;28;20107;-82
2020/12/14 10:41:09;;;;;;;6.90;6.13;;;;;;;10.42;93.13;100545.16;5027498;28;20029;-84
2020/12/14 10:43:35;;;;;;;6.00;5.50;;;;;;;10.47;92.34;100552.66;5040538;28;20580;-84
2020/12/14 10:46:01;;;;;;;6.30;5.70;;;;;;;10.48;92.21;100551.66;5039914;28;20120;-81
2020/12/14 10:48:26;;;;;;;5.88;5.28;;;;;;;10.55;91.50;100550.03;5019184;28;20127;-81
2020/12/14 10:50:52;;;;;;;5.68;4.85;;;;;;;10.63;91.48;100552.75;5038706;28;20223;-85
2020/12/14 10:53:17;;;;;;;6.68;5.32;;;;;;;10.67;91.62;100554.06;5037899;28;20108;-76
2020/12/14 10:55:43;;;;;;;6.07;5.57;;;;;;;10.70;91.88;100558.28;5036045;28;20361;-76
2020/12/14 10:58:09;;;;;;;5.60;5.07;;;;;;;10.72;90.88;100561.63;5024973;28;20041;-77
2020/12/14 11:00:35;;;;;;;5.32;4.82;;;;;;;10.53;90.97;100520.00;5016434;28;20190;-82
2020/12/14 11:03:00;;;;;;;5.82;5.22;;;;;;;10.58;91.24;100539.03;5023840;28;20039;-81
2020/12/14 11:05:26;;;;;;;6.65;5.07;;;;;;;10.71;91.05;100562.63;5033310;28;20120;-76
2020/12/14 11:07:54;;;;;;;6.60;5.25;;;;;;;10.79;91.30;100561.81;5041714;28;20095;-87
2020/12/14 11:10:20;;;;;;;5.50;5.00;;;;;;;10.83;90.59;100555.13;5020521;28;20067;-86
2020/12/14 11:12:46;;;;;;;5.80;5.00;;;;;;;10.80;90.21;100544.78;5017463;28;20664;-84
2020/12/14 11:15:12;;;;;;;7.05;4.68;;;;;;;10.92;89.78;100554.19;5038544;28;20055;-86
2020/12/14 11:17:37;;;;;;;6.20;4.68;;;;;;;10.69;89.60;100528.06;5041404;28;20121;-83
2020/12/14 11:20:04;;;;;;;5.22;4.20;;;;;;;10.92;89.67;100554.19;5011494;28;20041;-82
2020/12/14 11:22:29;;;;;;;6.10;4.63;;;;;;;10.95;89.27;100561.00;5037024;28;20075;-83
2020/12/14 11:24:55;;;;;;;5.90;5.20;;;;;;;10.95;90.03;100563.69;5043056;28;20097;-82